Data for 04/03/2014

Time Sea-Level Adjusted Pressure Absolute Pressure Temperature Relative Humidity Dew Point   
(mb) (inHg) (mb) (inHg) (C) (F) (%) (C) (F)
00:05 1015 29.97 844 24.92 -1.7 29 84 -4 24.7
00:10 1015 29.97 844 24.92 -1.9 28.6 85 -4 24.8
00:15 1015 29.97 844 24.92 -2.1 28.2 86 -4.1 24.6
00:20 1015 29.97 844 24.92 -2 28.4 80 -4.9 23.1
00:25 1015 29.97 844 24.92 -1.5 29.2 79 -4.8 23.4
00:30 1015 29.97 844 24.92 -1.4 29.4 75 -5.3 22.5
00:35 1015 29.97 844 24.92 -1.1 30 74 -5.3 22.5
00:40 1015 29.97 844 24.92 -1.1 30 73 -5.3 22.4
00:45 1015 29.97 844 24.92 -1.4 29.5 74 -5.5 22.2
00:50 1015 29.97 844 24.92 -1.5 29.3 73 -5.8 21.6
00:55 1015 29.97 844 24.92 -1.3 29.6 72 -5.7 21.7
01:00 1015 29.97 844 24.92 -1.2 29.8 72 -5.7 21.8
01:05 1015 29.97 844 24.92 -1.3 29.6 72 -5.7 21.7
01:10 1015 29.97 844 24.92 -1.3 29.7 72 -5.7 21.7
01:15 1015 29.97 844 24.92 -1.4 29.4 73 -5.7 21.8
01:20 1015 29.97 844 24.92 -1.6 29.2 74 -5.7 21.8
01:25 1015 29.97 844 24.92 -1.5 29.2 73 -5.7 21.7
01:30 1015 29.97 845 24.95 -1.3 29.6 70 -6 21.1
01:35 1015 29.97 845 24.95 -0.9 30.3 69 -6 21.3
01:40 1015 29.97 845 24.95 -0.8 30.6 69 -5.8 21.5
01:45 1015 29.97 845 24.95 -0.9 30.3 70 -5.7 21.7
01:50 1015 29.97 845 24.95 -1.3 29.7 71 -5.9 21.3
01:55 1015 29.97 845 24.95 -1.1 30.1 69 -6 21.1
02:00 1015 29.97 845 24.95 -0.6 30.9 68 -5.9 21.4
02:05 1015 29.97 845 24.95 -0.5 31.1 68 -5.6 21.9
02:10 1015 29.97 845 24.95 -0.8 30.6 69 -5.7 21.7
02:15 1015 29.97 845 24.95 -1.2 29.9 73 -5.4 22.4
02:20 1015 29.97 845 24.95 -1.8 28.7 76 -5.5 22.1
02:25 1015 29.97 845 24.95 -2.1 28.1 78 -5.4 22.3
02:30 1015 29.97 845 24.95 -2.6 27.4 82 -5.2 22.6
02:35 1015 29.97 845 24.95 -2.5 27.6 82 -5.2 22.7
02:40 1015 29.97 845 24.95 -2.5 27.5 81 -5.3 22.4
02:45 1016 30 845 24.95 -2 28.5 74 -6.1 21.1
02:50 1016 30 845 24.95 -1.3 29.7 71 -5.9 21.4
02:55 1016 30 845 24.95 -0.8 30.5 70 -5.7 21.8
03:00 1016 30 845 24.95 -0.7 30.7 71 -5.4 22.4
03:05 1016 30 845 24.95 -0.8 30.5 72 -5.3 22.4
03:10 1016 30 845 24.95 -0.9 30.3 72 -5.3 22.5
03:15 1016 30 845 24.95 -1 30.1 73 -5.3 22.4
03:20 1016 30 845 24.95 -1.1 30.1 73 -5.2 22.6
03:25 1016 30 845 24.95 -1.3 29.7 74 -5.2 22.6
03:30 1016 30 845 24.95 -1.4 29.4 75 -5.4 22.3
03:35 1016 30 845 24.95 -1.4 29.5 74 -5.4 22.2
03:40 1016 30 845 24.95 -1 30.2 74 -5.1 22.9
03:45 1016 30 845 24.95 -1.1 30 76 -4.8 23.3
03:50 1016 30 845 24.95 -1.5 29.2 78 -4.8 23.3
03:55 1016 30 845 24.95 -1.9 28.6 80 -4.9 23.2
04:00 1016 30 845 24.95 -2.2 28.1 79 -5.4 22.3
04:05 1016 30 845 24.95 -2.3 27.8 78 -5.6 22
04:10 1016 30 845 24.95 -1.9 28.5 76 -5.5 22
04:15 1016 30 845 24.95 -1.8 28.7 77 -5.3 22.4
04:20 1016 30 845 24.95 -1.8 28.7 77 -5.3 22.5
04:25 1016 30 845 24.95 -1.8 28.8 78 -5.2 22.6
04:30 1016 30 845 24.95 -2 28.4 77 -5.4 22.2
04:35 1016 30 845 24.95 -2.2 28 79 -5.4 22.3
04:40 1016 30 845 24.95 -2 28.3 79 -5.2 22.7
04:45 1016 30 845 24.95 -2 28.4 78 -5.3 22.5
04:50 1016 30 845 24.95 -2 28.4 79 -5.1 22.8
04:55 1016 30 845 24.95 -2.1 28.2 81 -4.9 23.1
05:00 1016 30 845 24.95 -2 28.4 81 -4.9 23.3
05:05 1016 30 845 24.95 -2.2 28.1 81 -5 23
05:10 1016 30 846 24.98 -2.3 27.9 81 -5.2 22.7
05:15 1016 30 846 24.98 -2.6 27.4 81 -5.4 22.3
05:20 1016 30 846 24.98 -2.8 27 82 -5.5 22.1
05:25 1016 30 846 24.98 -2.9 26.9 81 -5.6 21.9
05:30 1016 30 846 24.98 -2.7 27.2 80 -5.6 21.9
05:35 1016 30 846 24.98 -2.7 27.2 81 -5.5 22
05:40 1017 30.03 846 24.98 -2.9 26.8 81 -5.7 21.8
05:45 1017 30.03 846 24.98 -2.9 26.7 81 -5.8 21.6
05:50 1017 30.03 846 24.98 -2.9 26.8 81 -5.7 21.7
05:55 1017 30.03 846 24.98 -2.9 26.8 80 -5.8 21.5
06:00 1017 30.03 846 24.98 -2.9 26.8 81 -5.8 21.6
06:05 1017 30.03 846 24.98 -3 26.7 81 -5.8 21.6
06:10 1017 30.03 846 24.98 -3 26.7 81 -5.8 21.5
06:15 1017 30.03 846 24.98 -2.9 26.8 81 -5.8 21.6
06:20 1017 30.03 846 24.98 -2.7 27.1 80 -5.7 21.7
06:25 1017 30.03 846 24.98 -2.5 27.5 78 -5.8 21.5
06:30 1017 30.03 846 24.98 -2.5 27.4 78 -5.8 21.6
06:35 1017 30.03 846 24.98 -2.7 27.1 80 -5.7 21.7
06:40 1017 30.03 846 24.98 -2.5 27.5 78 -5.8 21.5
06:45 1017 30.03 847 25.01 -2.2 28.1 78 -5.5 22.1
06:50 1017 30.03 847 25.01 -2.4 27.8 79 -5.6 22
06:55 1017 30.03 847 25.01 -2.3 27.9 78 -5.5 22
07:00 1017 30.03 847 25.01 -2.1 28.2 78 -5.5 22.1
07:05 1017 30.03 847 25.01 -1.8 28.7 77 -5.3 22.5
07:10 1017 30.03 847 25.01 -1.7 28.9 76 -5.4 22.3
07:15 1018 30.06 847 25.01 -1.4 29.5 75 -5.3 22.4
07:20 1018 30.06 847 25.01 -0.9 30.4 73 -5.2 22.7
07:25 1018 30.06 847 25.01 -0.3 31.5 70 -5 22.9
07:30 1018 30.06 847 25.01 0.4 32.8 67 -4.9 23.1
07:35 1018 30.06 847 25.01 0.4 32.7 69 -4.6 23.8
07:40 1018 30.06 847 25.01 0.7 33.2 67 -4.8 23.3
07:45 1018 30.06 847 25.01 1.3 34.4 65 -4.6 23.7
07:50 1018 30.06 847 25.01 1.9 35.5 61 -4.7 23.6
07:55 1018 30.06 847 25.01 2.4 36.4 59 -4.7 23.5
08:00 1018 30.06 847 25.01 2.3 36.1 61 -4.5 24
08:05 1018 30.06 847 25.01 2.3 36.1 60 -4.6 23.7
08:10 1018 30.06 847 25.01 1.9 35.4 63 -4.5 23.9
08:15 1018 30.06 847 25.01 1.6 34.9 64 -4.5 23.9
08:20 1018 30.06 847 25.01 2.1 35.8 62 -4.5 24
08:25 1018 30.06 847 25.01 2.4 36.3 61 -4.4 24.1
08:30 1018 30.06 847 25.01 2.6 36.6 60 -4.5 24
08:35 1018 30.06 847 25.01 3.1 37.5 57 -4.5 23.8
08:40 1018 30.06 847 25.01 2.4 36.3 60 -4.7 23.6
08:45 1018 30.06 847 25.01 2.4 36.4 59 -4.7 23.5
08:50 1018 30.06 847 25.01 2.6 36.7 59 -4.5 23.9
08:55 1018 30.06 847 25.01 2.8 37 56 -5.2 22.7
09:00 1018 30.06 847 25.01 2.5 36.4 58 -5 23.1
09:05 1018 30.06 847 25.01 2.7 36.9 51 -6.3 20.7
09:10 1018 30.06 847 25.01 2.8 37 54 -5.7 21.7
09:15 1018 30.06 847 25.01 2.9 37.3 54 -5.4 22.3
09:20 1018 30.06 847 25.01 3 37.4 53 -5.6 21.9
09:25 1018 30.06 847 25.01 3.3 37.9 54 -5.1 22.8
09:30 1018 30.06 847 25.01 3.4 38.1 55 -4.9 23.2
09:35 1018 30.06 847 25.01 2.9 37.3 61 -4 24.8
09:40 1018 30.06 847 25.01 2.9 37.1 56 -5.1 22.9
09:45 1018 30.06 847 25.01 3 37.3 55 -5.2 22.7
09:50 1018 30.06 847 25.01 3.5 38.3 54 -5 22.9
09:55 1018 30.06 847 25.01 4 39.3 50 -5.4 22.3
10:00 1018 30.06 847 25.01 4.6 40.3 47 -5.7 21.8
10:05 1018 30.06 847 25.01 4.9 40.8 49 -5 23
10:10 1018 30.06 847 25.01 4.5 40.1 49 -5.3 22.4
10:15 1018 30.06 847 25.01 3.7 38.7 50 -5.7 21.7
10:20 1018 30.06 847 25.01 3.7 38.6 50 -5.7 21.7
10:25 1018 30.06 847 25.01 3.6 38.4 51 -5.6 21.9
10:30 1018 30.06 847 25.01 3.5 38.3 52 -5.5 22.1
10:35 1018 30.06 847 25.01 4.3 39.8 48 -5.7 21.8
10:40 1018 30.06 847 25.01 4.9 40.8 47 -5.5 22.1
10:45 1018 30.06 847 25.01 4.9 40.7 48 -5.1 22.8
10:50 1018 30.06 847 25.01 4.5 40.2 47 -5.8 21.5
10:55 1018 30.06 847 25.01 5 41 43 -6.4 20.5
11:00 1018 30.06 847 25.01 5.8 42.5 43 -5.7 21.8
11:05 1018 30.06 847 25.01 6.2 43.2 40 -6.5 20.3
11:10 1018 30.06 847 25.01 6.8 44.2 38 -6.7 19.9
11:15 1018 30.06 847 25.01 6.6 43.9 39 -6.4 20.5
11:20 1018 30.06 847 25.01 6.7 44.1 39 -6.4 20.5
11:25 1018 30.06 847 25.01 6.8 44.3 38 -6.4 20.4
11:30 1018 30.06 847 25.01 6 42.7 41 -6.2 20.8
11:35 1018 30.06 847 25.01 5.6 42.1 42 -6.4 20.4
11:40 1018 30.06 847 25.01 5.4 41.7 40 -7.2 19
11:45 1018 30.06 847 25.01 6.3 43.3 39 -6.8 19.8
11:50 1018 30.06 847 25.01 6.7 44 40 -6 21.3
11:55 1018 30.06 847 25.01 6 42.9 41 -6.4 20.5
12:00 1018 30.06 847 25.01 6 42.8 40 -6.5 20.4
12:05 1018 30.06 847 25.01 5.9 42.7 39 -7 19.5
12:10 1018 30.06 847 25.01 7 44.5 36 -7 19.3
12:15 1018 30.06 847 25.01 7.7 45.8 34 -7.2 19.1
12:20 1018 30.06 847 25.01 7.7 45.8 35 -6.7 19.9
12:25 1018 30.06 847 25.01 7.7 45.8 33 -7.4 18.6
12:30 1018 30.06 847 25.01 8.3 46.9 32 -7.6 18.3
12:35 1018 30.06 847 25.01 7.9 46.1 35 -6.8 19.7
12:40 1018 30.06 847 25.01 7.3 45.2 33 -7.8 18
12:45 1018 30.06 847 25.01 6.3 43.4 36 -7.5 18.5
12:50 1018 30.06 847 25.01 6.6 43.9 36 -7.6 18.3
12:55 1018 30.06 847 25.01 6.6 43.9 34 -8.2 17.2
13:00 1018 30.06 847 25.01 7.3 45.1 37 -6.6 20
13:05 1018 30.06 847 25.01 7.5 45.4 31 -8.6 16.5
13:10 1018 30.06 847 25.01 8.4 47.1 32 -7.2 19
13:15 1018 30.06 847 25.01 7.9 46.3 30 -8.4 16.9
13:20 1018 30.06 847 25.01 8.5 47.2 31 -7.6 18.3
13:25 1018 30.06 847 25.01 7.8 46.1 32 -7.9 17.8
13:30 1018 30.06 847 25.01 7.4 45.3 32 -8.1 17.4
13:35 1017 30.03 847 25.01 8.7 47.7 30 -8.1 17.5
13:40 1017 30.03 847 25.01 9.1 48.3 29 -8.2 17.3
13:45 1017 30.03 847 25.01 8.9 48 29 -8.2 17.3
13:50 1017 30.03 847 25.01 7.3 45.2 29 -9.4 15.1
13:55 1017 30.03 846 24.98 7.7 45.9 29 -9.1 15.7
14:00 1017 30.03 846 24.98 8.2 46.7 27 -9.6 14.7
14:05 1017 30.03 846 24.98 9.3 48.8 26 -9.2 15.5
14:10 1017 30.03 846 24.98 9.1 48.3 26 -9.5 14.8
14:15 1017 30.03 846 24.98 8.9 48.1 29 -8.2 17.2
14:20 1017 30.03 846 24.98 8.9 48.1 26 -9.4 15.2
14:25 1017 30.03 846 24.98 8.9 47.9 25 -10 13.9
14:30 1017 30.03 846 24.98 9.4 48.9 26 -9.2 15.4
14:35 1017 30.03 846 24.98 10 50 25 -9.2 15.5
14:40 1017 30.03 846 24.98 9.7 49.4 27 -8.6 16.6
14:45 1017 30.03 846 24.98 8.6 47.4 27 -9.2 15.4
14:50 1017 30.03 846 24.98 8.3 46.9 25 -10.9 12.5
14:55 1017 30.03 846 24.98 8.1 46.6 26 -10.3 13.4
15:00 1017 30.03 846 24.98 8.1 46.6 25 -10.7 12.7
15:05 1017 30.03 846 24.98 8.2 46.8 26 -10.4 13.2
15:10 1017 30.03 846 24.98 9 48.1 24 -10.6 12.9
15:15 1017 30.03 846 24.98 9.4 48.9 23 -10.6 12.9
15:20 1017 30.03 846 24.98 9.1 48.4 23 -11.2 11.9
15:25 1017 30.03 846 24.98 9.2 48.5 23 -11.1 12
15:30 1017 30.03 846 24.98 9.8 49.6 22 -10.7 12.8
15:35 1017 30.03 846 24.98 10 50.1 22 -11 12.3
15:40 1017 30.03 846 24.98 9.2 48.6 23 -10.6 12.8
15:45 1017 30.03 846 24.98 8.8 47.9 24 -10.8 12.6
15:50 1017 30.03 846 24.98 9 48.2 24 -10.6 12.9
15:55 1017 30.03 846 24.98 9.8 49.6 21 -11.6 11.2
16:00 1017 30.03 846 24.98 10 49.9 23 -10.3 13.4
16:05 1017 30.03 846 24.98 8.6 47.4 25 -10.4 13.3
16:10 1017 30.03 846 24.98 8.7 47.6 24 -11 12.1
16:15 1017 30.03 846 24.98 8.7 47.6 24 -10.6 13
16:20 1017 30.03 846 24.98 8.4 47.2 25 -10.6 12.8
16:25 1017 30.03 846 24.98 8.1 46.6 24 -11.1 12
16:30 1017 30.03 846 24.98 9 48.2 23 -11.2 11.8
16:35 1017 30.03 846 24.98 9.3 48.8 22 -11.1 12
16:40 1017 30.03 846 24.98 9.4 49 23 -10.6 13
16:45 1017 30.03 846 24.98 8.6 47.5 24 -11.1 12.1
16:50 1016 30 846 24.98 8.5 47.2 23 -11.3 11.7
16:55 1016 30 846 24.98 8.4 47.2 24 -11.1 12
17:00 1016 30 846 24.98 8.2 46.8 25 -10.9 12.4
17:05 1016 30 846 24.98 7.8 46.1 25 -11 12.2
17:10 1016 30 846 24.98 7.7 45.8 25 -10.9 12.3
17:15 1016 30 846 24.98 7.9 46.3 25 -11.2 11.9
17:20 1016 30 846 24.98 8.2 46.7 24 -11.2 11.9
17:25 1016 30 846 24.98 8 46.3 24 -11.3 11.6
17:30 1016 30 846 24.98 7.6 45.7 25 -11.4 11.5
17:35 1016 30 846 24.98 7.6 45.7 24 -11.8 10.8
17:40 1016 30 845 24.95 7.8 46 24 -11.8 10.8
17:45 1016 30 845 24.95 7.7 45.8 24 -11.9 10.7
17:50 1016 30 845 24.95 7.5 45.5 24 -11.9 10.5
17:55 1016 30 845 24.95 7.3 45.2 24 -11.7 10.9
18:00 1016 30 845 24.95 7.4 45.3 24 -12 10.4
18:05 1016 30 845 24.95 7.3 45.1 25 -11.4 11.4
18:10 1016 30 845 24.95 7.2 44.9 27 -10.4 13.2
18:15 1016 30 845 24.95 6.8 44.2 28 -10.5 13.1
18:20 1016 30 845 24.95 6.7 44.1 26 -11.2 11.8
18:25 1016 30 845 24.95 6.8 44.3 27 -11.1 12.1
18:30 1016 30 845 24.95 6.8 44.2 27 -11.2 11.9
18:35 1016 30 845 24.95 6.9 44.3 27 -10.9 12.4
18:40 1016 30 845 24.95 6.7 44 28 -10.7 12.8
18:45 1016 30 845 24.95 6.4 43.5 28 -10.7 12.7
18:50 1016 30 845 24.95 6.2 43.2 30 -10.2 13.7
18:55 1016 30 845 24.95 5.8 42.5 33 -9.2 15.4
19:00 1016 30 845 24.95 5.3 41.5 37 -8.3 17.1
19:05 1016 30 845 24.95 4.8 40.7 39 -8 17.6
19:10 1016 30 845 24.95 4.7 40.4 41 -7.6 18.2
19:15 1016 30 845 24.95 4.2 39.6 42 -7.6 18.3
19:20 1016 30 845 24.95 3.9 38.9 43 -7.5 18.5
19:25 1016 30 845 24.95 3.5 38.3 45 -7.2 19
19:30 1016 30 845 24.95 3.2 37.7 47 -7.1 19.2
19:35 1016 30 845 24.95 3 37.3 48 -7 19.4
19:40 1016 30 845 24.95 2.8 37 49 -7 19.4
19:45 1016 30 845 24.95 2.6 36.7 49 -7 19.4
19:50 1016 30 845 24.95 2.5 36.6 46 -7.9 17.9
19:55 1016 30 845 24.95 2.7 36.8 46 -7.9 17.8
20:00 1016 30 845 24.95 2.6 36.8 45 -8 17.5
20:05 1016 30 845 24.95 2.6 36.8 46 -8 17.7
20:10 1016 30 845 24.95 2.6 36.7 44 -8.3 17.1
20:15 1016 30 845 24.95 2.7 36.9 43 -8.6 16.6
20:20 1016 30 845 24.95 2.9 37.2 42 -8.7 16.3
20:25 1016 30 845 24.95 2.9 37.3 42 -8.8 16.2
20:30 1016 30 845 24.95 2.9 37.2 42 -8.9 16
20:35 1016 30 845 24.95 3.1 37.5 41 -9 15.8
20:40 1016 30 845 24.95 3.1 37.7 40 -9.3 15.2
20:45 1016 30 845 24.95 3.2 37.8 39 -9.5 14.9
20:50 1016 30 845 24.95 3.2 37.8 38 -9.6 14.7
20:55 1016 30 845 24.95 3.3 37.9 39 -9.5 14.9
21:00 1016 30 845 24.95 3.3 38 38 -9.6 14.7
21:05 1016 30 845 24.95 3.4 38.1 37 -9.9 14.2
21:10 1016 30 845 24.95 3.4 38.1 37 -9.9 14.2
21:15 1016 30 845 24.95 3.4 38.1 37 -9.9 14.2
21:20 1016 30 845 24.95 3.3 37.9 38 -9.8 14.4
21:25 1016 30 845 24.95 3.2 37.7 38 -9.9 14.2
21:30 1016 30 845 24.95 3.1 37.6 38 -10 14.1
21:35 1016 30 845 24.95 3 37.4 39 -9.7 14.6
21:40 1016 30 845 24.95 3 37.4 39 -9.8 14.4
21:45 1016 30 845 24.95 3.1 37.5 38 -10.1 13.8
21:50 1016 30 845 24.95 3 37.4 38 -10 14.1
21:55 1016 30 845 24.95 3.1 37.6 37 -10.1 13.8
22:00 1016 30 845 24.95 3.2 37.7 37 -10.3 13.4
22:05 1016 30 845 24.95 3.2 37.8 36 -10.4 13.3
22:10 1016 30 845 24.95 3.4 38.1 36 -10.3 13.4
22:15 1016 30 845 24.95 3.2 37.8 36 -10.3 13.4
22:20 1016 30 845 24.95 3.1 37.6 35 -10.8 12.5
22:25 1016 30 845 24.95 3.2 37.8 37 -10.2 13.6
22:30 1016 30 845 24.95 3 37.4 35 -11 12.2
22:35 1016 30 845 24.95 3.3 37.9 36 -10.3 13.4
22:40 1016 30 845 24.95 3.1 37.5 37 -10.4 13.3
22:45 1016 30 845 24.95 3.1 37.5 36 -10.5 13.1
22:50 1016 30 845 24.95 3.1 37.5 37 -10.3 13.5
22:55 1016 30 845 24.95 2.9 37.2 38 -10.1 13.9
23:00 1016 30 845 24.95 2.6 36.8 41 -9.3 15.2
23:05 1016 30 845 24.95 2.3 36.1 42 -9.3 15.2
23:10 1016 30 845 24.95 2 35.7 42 -9.5 15
23:15 1016 30 845 24.95 1.9 35.4 43 -9.5 15
23:20 1016 30 845 24.95 1.6 34.9 45 -9.1 15.6
23:25 1016 30 845 24.95 1.3 34.4 45 -9.2 15.4
23:30 1016 30 845 24.95 1.3 34.3 45 -9.4 15.2
23:35 1016 30 845 24.95 1.2 34.2 45 -9.4 15.1
23:40 1016 30 845 24.95 1.3 34.4 45 -9.4 15.1
23:45 1016 30 845 24.95 1.2 34.2 46 -9.1 15.6
23:50 1016 30 845 24.95 1 33.9 46 -9.2 15.4
23:55 1016 30 845 24.95 0.9 33.7 46 -9.4 15
24:00 1016 30 845 24.95 0.9 33.6 47 -9.3 15.3